sensor_id;sensor_type;location;lat;lon;timestamp;pressure;altitude;pressure_sealevel;temperature
62930;BMP280;49036;42.782;23.108;2023-05-07T00:01:32;-14250.19;;;6.28
62930;BMP280;49036;42.782;23.108;2023-05-07T00:03:58;-14247.63;;;6.21
62930;BMP280;49036;42.782;23.108;2023-05-07T00:06:23;-14246.22;;;6.17
62930;BMP280;49036;42.782;23.108;2023-05-07T00:08:49;-14247.78;;;6.21
62930;BMP280;49036;42.782;23.108;2023-05-07T00:11:15;-14243.81;;;6.09
62930;BMP280;49036;42.782;23.108;2023-05-07T00:13:40;-14243.97;;;6.10
62930;BMP280;49036;42.782;23.108;2023-05-07T00:16:05;-14243.13;;;6.07
62930;BMP280;49036;42.782;23.108;2023-05-07T00:18:31;-14242.25;;;6.05
62930;BMP280;49036;42.782;23.108;2023-05-07T00:20:56;-14241.72;;;6.03
62930;BMP280;49036;42.782;23.108;2023-05-07T00:23:22;-14239.84;;;5.98
62930;BMP280;49036;42.782;23.108;2023-05-07T00:25:48;-14239.16;;;5.96
62930;BMP280;49036;42.782;23.108;2023-05-07T00:28:14;-14243.97;;;6.10
62930;BMP280;49036;42.782;23.108;2023-05-07T00:30:39;-14249.00;;;6.25
62930;BMP280;49036;42.782;23.108;2023-05-07T00:33:05;-14251.94;;;6.33
62930;BMP280;49036;42.782;23.108;2023-05-07T00:35:30;-14251.59;;;6.32
62930;BMP280;49036;42.782;23.108;2023-05-07T00:37:56;-14254.34;;;6.40
62930;BMP280;49036;42.782;23.108;2023-05-07T00:40:21;-14257.13;;;6.49
62930;BMP280;49036;42.782;23.108;2023-05-07T00:42:47;-14257.97;;;6.51
62930;BMP280;49036;42.782;23.108;2023-05-07T00:45:14;-14256.94;;;6.48
62930;BMP280;49036;42.782;23.108;2023-05-07T00:47:40;-14253.66;;;6.38
62930;BMP280;49036;42.782;23.108;2023-05-07T00:50:06;-14254.00;;;6.39
62930;BMP280;49036;42.782;23.108;2023-05-07T00:52:33;-14252.63;;;6.35
62930;BMP280;49036;42.782;23.108;2023-05-07T00:55:03;-14251.25;;;6.31
62930;BMP280;49036;42.782;23.108;2023-05-07T00:57:33;-14249.69;;;6.27
62930;BMP280;49036;42.782;23.108;2023-05-07T01:00:01;-14249.00;;;6.25
62930;BMP280;49036;42.782;23.108;2023-05-07T01:02:26;-14245.72;;;6.15
62930;BMP280;49036;42.782;23.108;2023-05-07T01:04:52;-14242.09;;;6.04
62930;BMP280;49036;42.782;23.108;2023-05-07T01:07:18;-14236.72;;;5.89
62930;BMP280;49036;42.782;23.108;2023-05-07T01:09:43;-14236.03;;;5.87
62930;BMP280;49036;42.782;23.108;2023-05-07T01:12:09;-14238.28;;;5.93
62930;BMP280;49036;42.782;23.108;2023-05-07T01:14:35;-14242.59;;;6.06
62930;BMP280;49036;42.782;23.108;2023-05-07T01:17:01;-14244.31;;;6.11
62930;BMP280;49036;42.782;23.108;2023-05-07T01:19:28;-14246.75;;;6.18
62930;BMP280;49036;42.782;23.108;2023-05-07T01:22:01;-14245.34;;;6.14
62930;BMP280;49036;42.782;23.108;2023-05-07T01:24:29;-14244.31;;;6.11
62930;BMP280;49036;42.782;23.108;2023-05-07T01:26:55;-14242.44;;;6.05
62930;BMP280;49036;42.782;23.108;2023-05-07T01:29:20;-14239.31;;;5.96
62930;BMP280;49036;42.782;23.108;2023-05-07T01:31:46;-14239.31;;;5.96
62930;BMP280;49036;42.782;23.108;2023-05-07T01:34:13;-14239.66;;;5.97
62930;BMP280;49036;42.782;23.108;2023-05-07T01:36:42;-14237.06;;;5.90
62930;BMP280;49036;42.782;23.108;2023-05-07T01:39:08;-14231.53;;;5.73
62930;BMP280;49036;42.782;23.108;2023-05-07T01:41:35;-14227.03;;;5.60
62930;BMP280;49036;42.782;23.108;2023-05-07T01:44:01;-14223.59;;;5.50
62930;BMP280;49036;42.782;23.108;2023-05-07T01:46:28;-14221.19;;;5.43
62930;BMP280;49036;42.782;23.108;2023-05-07T01:48:55;-14217.56;;;5.32
62930;BMP280;49036;42.782;23.108;2023-05-07T01:51:21;-14213.41;;;5.20
62930;BMP280;49036;42.782;23.108;2023-05-07T01:53:47;-14209.94;;;5.10
62930;BMP280;49036;42.782;23.108;2023-05-07T01:56:17;-14207.00;;;5.01
62930;BMP280;49036;42.782;23.108;2023-05-07T01:58:44;-14206.31;;;4.99
62930;BMP280;49036;42.782;23.108;2023-05-07T02:01:11;-14206.16;;;4.99
62930;BMP280;49036;42.782;23.108;2023-05-07T02:03:36;-14205.63;;;4.97
62930;BMP280;49036;42.782;23.108;2023-05-07T02:06:02;-14207.53;;;5.03
62930;BMP280;49036;42.782;23.108;2023-05-07T02:08:27;-14209.09;;;5.07
62930;BMP280;49036;42.782;23.108;2023-05-07T02:10:53;-14211.34;;;5.14
62930;BMP280;49036;42.782;23.108;2023-05-07T02:13:19;-14211.69;;;5.15
62930;BMP280;49036;42.782;23.108;2023-05-07T02:15:45;-14209.94;;;5.10
62930;BMP280;49036;42.782;23.108;2023-05-07T02:18:15;-14214.25;;;5.22
62930;BMP280;49036;42.782;23.108;2023-05-07T02:20:41;-14217.22;;;5.31
62930;BMP280;49036;42.782;23.108;2023-05-07T02:23:06;-14215.66;;;5.27
62930;BMP280;49036;42.782;23.108;2023-05-07T02:25:32;-14209.25;;;5.08
62930;BMP280;49036;42.782;23.108;2023-05-07T02:27:57;-14203.91;;;4.92
62930;BMP280;49036;42.782;23.108;2023-05-07T02:30:23;-14194.06;;;4.63
62930;BMP280;49036;42.782;23.108;2023-05-07T02:32:48;-14189.22;;;4.49
62930;BMP280;49036;42.782;23.108;2023-05-07T02:35:15;-14187.84;;;4.45
62930;BMP280;49036;42.782;23.108;2023-05-07T02:37:40;-14185.78;;;4.39
62930;BMP280;49036;42.782;23.108;2023-05-07T02:40:06;-14182.84;;;4.30
62930;BMP280;49036;42.782;23.108;2023-05-07T02:42:32;-14178.53;;;4.17
62930;BMP280;49036;42.782;23.108;2023-05-07T02:44:57;-14175.75;;;4.09
62930;BMP280;49036;42.782;23.108;2023-05-07T02:47:23;-14172.31;;;3.99
62930;BMP280;49036;42.782;23.108;2023-05-07T02:49:48;-14171.97;;;3.98
62930;BMP280;49036;42.782;23.108;2023-05-07T02:52:14;-14177.47;;;4.14
62930;BMP280;49036;42.782;23.108;2023-05-07T02:54:39;-14179.38;;;4.20
62930;BMP280;49036;42.782;23.108;2023-05-07T02:57:05;-14177.31;;;4.14
62930;BMP280;49036;42.782;23.108;2023-05-07T02:59:30;-14177.81;;;4.15
62930;BMP280;49036;42.782;23.108;2023-05-07T03:01:56;-14175.94;;;4.10
62930;BMP280;49036;42.782;23.108;2023-05-07T03:04:21;-14172.81;;;4.00
62930;BMP280;49036;42.782;23.108;2023-05-07T03:06:47;-14172.81;;;4.00
62930;BMP280;49036;42.782;23.108;2023-05-07T03:09:12;-14169.38;;;3.90
62930;BMP280;49036;42.782;23.108;2023-05-07T03:11:38;-14168.69;;;3.88
62930;BMP280;49036;42.782;23.108;2023-05-07T03:14:03;-14166.09;;;3.81
62930;BMP280;49036;42.782;23.108;2023-05-07T03:16:29;-14161.41;;;3.67
62930;BMP280;49036;42.782;23.108;2023-05-07T03:18:54;-14168.69;;;3.88
62930;BMP280;49036;42.782;23.108;2023-05-07T03:21:20;-14167.13;;;3.84
62930;BMP280;49036;42.782;23.108;2023-05-07T03:23:45;-14169.19;;;3.90
62930;BMP280;49036;42.782;23.108;2023-05-07T03:26:11;-14170.56;;;3.94
62930;BMP280;49036;42.782;23.108;2023-05-07T03:28:37;-14173.69;;;4.03
62930;BMP280;49036;42.782;23.108;2023-05-07T03:31:02;-14177.13;;;4.13
62930;BMP280;49036;42.782;23.108;2023-05-07T03:33:28;-14183.00;;;4.30
62930;BMP280;49036;42.782;23.108;2023-05-07T03:35:53;-14185.94;;;4.39
62930;BMP280;49036;42.782;23.108;2023-05-07T03:38:19;-14193.03;;;4.60
62930;BMP280;49036;42.782;23.108;2023-05-07T03:40:44;-14201.84;;;4.86
62930;BMP280;49036;42.782;23.108;2023-05-07T03:43:10;-14207.34;;;5.02
62930;BMP280;49036;42.782;23.108;2023-05-07T03:45:35;-14205.63;;;4.97
62930;BMP280;49036;42.782;23.108;2023-05-07T03:48:01;-14208.56;;;5.06
62930;BMP280;49036;42.782;23.108;2023-05-07T03:50:26;-14216.16;;;5.28
62930;BMP280;49036;42.782;23.108;2023-05-07T03:52:52;-14221.00;;;5.42
62930;BMP280;49036;42.782;23.108;2023-05-07T03:55:17;-14227.38;;;5.61
62930;BMP280;49036;42.782;23.108;2023-05-07T03:57:43;-14231.88;;;5.74
62930;BMP280;49036;42.782;23.108;2023-05-07T04:00:09;-14238.97;;;5.95
62930;BMP280;49036;42.782;23.108;2023-05-07T04:02:34;-14245.00;;;6.13
62930;BMP280;49036;42.782;23.108;2023-05-07T04:05:00;-14254.00;;;6.39
62930;BMP280;49036;42.782;23.108;2023-05-07T04:07:26;-14264.19;;;6.69
62930;BMP280;49036;42.782;23.108;2023-05-07T04:09:51;-14273.69;;;6.97
62930;BMP280;49036;42.782;23.108;2023-05-07T04:12:17;-14282.00;;;7.22
62930;BMP280;49036;42.782;23.108;2023-05-07T04:14:42;-14294.78;;;7.59
62930;BMP280;49036;42.782;23.108;2023-05-07T04:17:08;-14304.28;;;7.87
62930;BMP280;49036;42.782;23.108;2023-05-07T04:19:35;-14314.50;;;8.17
62930;BMP280;49036;42.782;23.108;2023-05-07T04:22:00;-14324.19;;;8.46
62930;BMP280;49036;42.782;23.108;2023-05-07T04:24:26;-14338.00;;;8.87
62930;BMP280;49036;42.782;23.108;2023-05-07T04:26:51;-14349.06;;;9.19
62930;BMP280;49036;42.782;23.108;2023-05-07T04:29:18;-14359.44;;;9.50
62930;BMP280;49036;42.782;23.108;2023-05-07T04:31:43;-14369.81;;;9.80
62930;BMP280;49036;42.782;23.108;2023-05-07T04:34:10;-14380.38;;;10.11
62930;BMP280;49036;42.782;23.108;2023-05-07T04:36:37;-14400.44;;;10.70
62930;BMP280;49036;42.782;23.108;2023-05-07T04:39:03;-14402.84;;;10.77
62930;BMP280;49036;42.782;23.108;2023-05-07T04:41:29;-14415.31;;;11.14
62930;BMP280;49036;42.782;23.108;2023-05-07T04:43:54;-14412.38;;;11.05
62930;BMP280;49036;42.782;23.108;2023-05-07T04:46:20;-14420.66;;;11.29
62930;BMP280;49036;42.782;23.108;2023-05-07T04:48:46;-14421.38;;;11.31
62930;BMP280;49036;42.782;23.108;2023-05-07T04:51:11;-14422.41;;;11.34
62930;BMP280;49036;42.782;23.108;2023-05-07T04:53:37;-14428.28;;;11.52
62930;BMP280;49036;42.782;23.108;2023-05-07T04:56:03;-14427.75;;;11.50
62930;BMP280;49036;42.782;23.108;2023-05-07T04:58:28;-14432.59;;;11.64
62930;BMP280;49036;42.782;23.108;2023-05-07T05:00:57;-14434.50;;;11.70
62930;BMP280;49036;42.782;23.108;2023-05-07T05:03:23;-14434.50;;;11.70
62930;BMP280;49036;42.782;23.108;2023-05-07T05:05:49;-14476.38;;;12.93
62930;BMP280;49036;42.782;23.108;2023-05-07T05:08:14;-14475.34;;;12.90
62930;BMP280;49036;42.782;23.108;2023-05-07T05:10:40;-14485.38;;;13.19
62930;BMP280;49036;42.782;23.108;2023-05-07T05:13:07;-14499.91;;;13.62
62930;BMP280;49036;42.782;23.108;2023-05-07T05:15:33;-14528.31;;;14.45
62930;BMP280;49036;42.782;23.108;2023-05-07T05:17:58;-14539.38;;;14.78
62930;BMP280;49036;42.782;23.108;2023-05-07T05:20:24;-14534.88;;;14.65
62930;BMP280;49036;42.782;23.108;2023-05-07T05:22:49;-14536.97;;;14.71
62930;BMP280;49036;42.782;23.108;2023-05-07T05:25:15;-14544.91;;;14.94
62930;BMP280;49036;42.782;23.108;2023-05-07T05:27:40;-14541.28;;;14.83
62930;BMP280;49036;42.782;23.108;2023-05-07T05:30:06;-14552.53;;;15.16
62930;BMP280;49036;42.782;23.108;2023-05-07T05:32:32;-14557.72;;;15.32
62930;BMP280;49036;42.782;23.108;2023-05-07T05:34:57;-14563.63;;;15.49
62930;BMP280;49036;42.782;23.108;2023-05-07T05:37:23;-14567.94;;;15.61
62930;BMP280;49036;42.782;23.108;2023-05-07T05:39:48;-14553.75;;;15.20
62930;BMP280;49036;42.782;23.108;2023-05-07T05:42:14;-14555.47;;;15.25
62930;BMP280;49036;42.782;23.108;2023-05-07T05:44:39;-14549.25;;;15.07
62930;BMP280;49036;42.782;23.108;2023-05-07T05:47:05;-14536.63;;;14.70
62930;BMP280;49036;42.782;23.108;2023-05-07T05:49:30;-14529.50;;;14.49
62930;BMP280;49036;42.782;23.108;2023-05-07T05:51:56;-14541.81;;;14.85
62930;BMP280;49036;42.782;23.108;2023-05-07T05:54:21;-14552.38;;;15.16
62930;BMP280;49036;42.782;23.108;2023-05-07T05:56:47;-14559.28;;;15.36
62930;BMP280;49036;42.782;23.108;2023-05-07T05:59:13;-14559.63;;;15.37
62930;BMP280;49036;42.782;23.108;2023-05-07T06:01:38;-14559.47;;;15.37
62930;BMP280;49036;42.782;23.108;2023-05-07T06:04:04;-14560.16;;;15.39
62930;BMP280;49036;42.782;23.108;2023-05-07T06:06:29;-14567.44;;;15.60
62930;BMP280;49036;42.782;23.108;2023-05-07T06:08:57;-14550.47;;;15.10
62930;BMP280;49036;42.782;23.108;2023-05-07T06:11:23;-14554.63;;;15.22
62930;BMP280;49036;42.782;23.108;2023-05-07T06:13:48;-14561.03;;;15.41
62930;BMP280;49036;42.782;23.108;2023-05-07T06:16:14;-14556.88;;;15.29
62930;BMP280;49036;42.782;23.108;2023-05-07T06:18:40;-14560.34;;;15.39
62930;BMP280;49036;42.782;23.108;2023-05-07T06:21:06;-14548.72;;;15.05
62930;BMP280;49036;42.782;23.108;2023-05-07T06:23:31;-14543.19;;;14.89
62930;BMP280;49036;42.782;23.108;2023-05-07T06:25:57;-14551.16;;;15.12
62930;BMP280;49036;42.782;23.108;2023-05-07T06:28:22;-14555.66;;;15.25
62930;BMP280;49036;42.782;23.108;2023-05-07T06:30:48;-14553.56;;;15.19
62930;BMP280;49036;42.782;23.108;2023-05-07T06:33:15;-14563.09;;;15.47
62930;BMP280;49036;42.782;23.108;2023-05-07T06:35:41;-14568.28;;;15.62
62930;BMP280;49036;42.782;23.108;2023-05-07T06:38:06;-14571.75;;;15.73
62930;BMP280;49036;42.782;23.108;2023-05-07T06:40:32;-14581.13;;;16.00
62930;BMP280;49036;42.782;23.108;2023-05-07T06:42:57;-14582.31;;;16.04
62930;BMP280;49036;42.782;23.108;2023-05-07T06:45:23;-14571.41;;;15.72
62930;BMP280;49036;42.782;23.108;2023-05-07T06:47:50;-14572.81;;;15.76
62930;BMP280;49036;42.782;23.108;2023-05-07T06:50:15;-14584.75;;;16.11
62930;BMP280;49036;42.782;23.108;2023-05-07T06:52:42;-14589.06;;;16.23
62930;BMP280;49036;42.782;23.108;2023-05-07T06:55:08;-14590.13;;;16.26
62930;BMP280;49036;42.782;23.108;2023-05-07T06:57:52;-14579.03;;;15.94
62930;BMP280;49036;42.782;23.108;2023-05-07T07:00:18;-14589.78;;;16.25
62930;BMP280;49036;42.782;23.108;2023-05-07T07:02:44;-14596.19;;;16.44
62930;BMP280;49036;42.782;23.108;2023-05-07T07:05:10;-14598.59;;;16.51
62930;BMP280;49036;42.782;23.108;2023-05-07T07:07:35;-14592.38;;;16.33
62930;BMP280;49036;42.782;23.108;2023-05-07T07:10:01;-14602.75;;;16.63
62930;BMP280;49036;42.782;23.108;2023-05-07T07:12:27;-14613.50;;;16.95
62930;BMP280;49036;42.782;23.108;2023-05-07T07:14:54;-14602.41;;;16.62
62930;BMP280;49036;42.782;23.108;2023-05-07T07:17:19;-14609.16;;;16.82
62930;BMP280;49036;42.782;23.108;2023-05-07T07:19:45;-14616.97;;;17.05
62930;BMP280;49036;42.782;23.108;2023-05-07T07:22:10;-14618.16;;;17.09
62930;BMP280;49036;42.782;23.108;2023-05-07T07:24:36;-14620.94;;;17.17
62930;BMP280;49036;42.782;23.108;2023-05-07T07:27:01;-14612.63;;;16.92
62930;BMP280;49036;42.782;23.108;2023-05-07T07:29:27;-14601.72;;;16.60
62930;BMP280;49036;42.782;23.108;2023-05-07T07:31:53;-14611.41;;;16.89
62930;BMP280;49036;42.782;23.108;2023-05-07T07:34:18;-14620.41;;;17.15
62930;BMP280;49036;42.782;23.108;2023-05-07T07:36:44;-14628.91;;;17.40
62930;BMP280;49036;42.782;23.108;2023-05-07T07:39:09;-14631.34;;;17.47
62930;BMP280;49036;42.782;23.108;2023-05-07T07:42:40;-14626.84;;;17.34
62930;BMP280;49036;42.782;23.108;2023-05-07T07:45:06;-14637.41;;;17.65
62930;BMP280;49036;42.782;23.108;2023-05-07T07:47:32;-14645.34;;;17.88
62930;BMP280;49036;42.782;23.108;2023-05-07T07:49:57;-14654.00;;;18.14
62930;BMP280;49036;42.782;23.108;2023-05-07T07:52:23;-14656.63;;;18.21
62930;BMP280;49036;42.782;23.108;2023-05-07T07:54:48;-14647.44;;;17.94
62930;BMP280;49036;42.782;23.108;2023-05-07T07:57:14;-14653.84;;;18.13
62930;BMP280;49036;42.782;23.108;2023-05-07T07:59:39;-14652.28;;;18.09
62930;BMP280;49036;42.782;23.108;2023-05-07T08:02:05;-14647.44;;;17.94
62930;BMP280;49036;42.782;23.108;2023-05-07T08:04:30;-14643.28;;;17.82
62930;BMP280;49036;42.782;23.108;2023-05-07T08:06:58;-14642.41;;;17.80
62930;BMP280;49036;42.782;23.108;2023-05-07T08:09:23;-14640.00;;;17.73
62930;BMP280;49036;42.782;23.108;2023-05-07T08:11:49;-14642.75;;;17.81
62930;BMP280;49036;42.782;23.108;2023-05-07T08:14:15;-14641.19;;;17.76
62930;BMP280;49036;42.782;23.108;2023-05-07T08:16:41;-14640.34;;;17.74
62930;BMP280;49036;42.782;23.108;2023-05-07T08:19:06;-14647.78;;;17.95
62930;BMP280;49036;42.782;23.108;2023-05-07T08:21:32;-14662.69;;;18.39
62930;BMP280;49036;42.782;23.108;2023-05-07T08:23:57;-14663.91;;;18.42
62930;BMP280;49036;42.782;23.108;2023-05-07T08:26:23;-14673.41;;;18.70
62930;BMP280;49036;42.782;23.108;2023-05-07T08:28:48;-14675.50;;;18.76
62930;BMP280;49036;42.782;23.108;2023-05-07T08:33:00;-14697.66;;;19.41
62930;BMP280;49036;42.782;23.108;2023-05-07T08:35:25;-14699.91;;;19.48
62930;BMP280;49036;42.782;23.108;2023-05-07T08:37:52;-14696.28;;;19.37
62930;BMP280;49036;42.782;23.108;2023-05-07T08:40:18;-14716.38;;;19.96
62930;BMP280;49036;42.782;23.108;2023-05-07T08:42:44;-14734.41;;;20.49
62930;BMP280;49036;42.782;23.108;2023-05-07T08:45:10;-14723.66;;;20.17
62930;BMP280;49036;42.782;23.108;2023-05-07T08:47:43;-14734.41;;;20.49
62930;BMP280;49036;42.782;23.108;2023-05-07T08:50:12;-14745.84;;;20.82
62930;BMP280;49036;42.782;23.108;2023-05-07T08:52:40;-14748.09;;;20.89
62930;BMP280;49036;42.782;23.108;2023-05-07T08:55:06;-14759.69;;;21.23
62930;BMP280;49036;42.782;23.108;2023-05-07T08:59:22;-14777.00;;;21.74
62930;BMP280;49036;42.782;23.108;2023-05-07T09:01:47;-14787.41;;;22.04
62930;BMP280;49036;42.782;23.108;2023-05-07T09:05:30;-14800.41;;;22.42
62930;BMP280;49036;42.782;23.108;2023-05-07T09:07:59;-14812.53;;;22.77
62930;BMP280;49036;42.782;23.108;2023-05-07T09:10:26;-14799.19;;;22.38
62930;BMP280;49036;42.782;23.108;2023-05-07T09:12:51;-14824.84;;;23.13
62930;BMP280;49036;42.782;23.108;2023-05-07T09:15:18;-14795.56;;;22.28
62930;BMP280;49036;42.782;23.108;2023-05-07T09:17:43;-14804.41;;;22.54
62930;BMP280;49036;42.782;23.108;2023-05-07T09:20:09;-14831.44;;;23.33
62930;BMP280;49036;42.782;23.108;2023-05-07T09:22:38;-14842.34;;;23.65
62930;BMP280;49036;42.782;23.108;2023-05-07T09:25:07;-14827.09;;;23.20
62930;BMP280;49036;42.782;23.108;2023-05-07T09:27:33;-14847.56;;;23.80
62930;BMP280;49036;42.782;23.108;2023-05-07T09:29:58;-14856.56;;;24.06
62930;BMP280;49036;42.782;23.108;2023-05-07T09:32:25;-14861.59;;;24.21
62930;BMP280;49036;42.782;23.108;2023-05-07T09:34:50;-14852.22;;;23.93
62930;BMP280;49036;42.782;23.108;2023-05-07T09:37:16;-14838.53;;;23.53
62930;BMP280;49036;42.782;23.108;2023-05-07T09:41:11;-14863.66;;;24.27
62930;BMP280;49036;42.782;23.108;2023-05-07T09:43:38;-14849.97;;;23.87
62930;BMP280;49036;42.782;23.108;2023-05-07T09:46:11;-14852.41;;;23.94
62930;BMP280;49036;42.782;23.108;2023-05-07T09:48:39;-14873.53;;;24.56
62930;BMP280;49036;42.782;23.108;2023-05-07T09:51:39;-14886.03;;;24.92
62930;BMP280;49036;42.782;23.108;2023-05-07T09:54:07;-14870.06;;;24.46
62930;BMP280;49036;42.782;23.108;2023-05-07T09:56:32;-14866.78;;;24.36
62930;BMP280;49036;42.782;23.108;2023-05-07T09:59:03;-14870.59;;;24.47
62930;BMP280;49036;42.782;23.108;2023-05-07T10:01:31;-14870.25;;;24.46
62930;BMP280;49036;42.782;23.108;2023-05-07T10:03:57;-14863.84;;;24.27
62930;BMP280;49036;42.782;23.108;2023-05-07T10:06:25;-14889.84;;;25.03
62930;BMP280;49036;42.782;23.108;2023-05-07T10:08:53;-14877.72;;;24.68
62930;BMP280;49036;42.782;23.108;2023-05-07T10:11:20;-14863.31;;;24.26
62930;BMP280;49036;42.782;23.108;2023-05-07T10:13:47;-14908.72;;;25.58
62930;BMP280;49036;42.782;23.108;2023-05-07T10:17:41;-14929.19;;;26.18
62930;BMP280;49036;42.782;23.108;2023-05-07T10:20:07;-14953.81;;;26.90
62930;BMP280;49036;42.782;23.108;2023-05-07T10:22:47;-14935.06;;;26.35
62930;BMP280;49036;42.782;23.108;2023-05-07T10:25:17;-14931.78;;;26.26
62930;BMP280;49036;42.782;23.108;2023-05-07T10:27:45;-14908.56;;;25.58
62930;BMP280;49036;42.782;23.108;2023-05-07T10:33:01;-14930.06;;;26.21
62930;BMP280;49036;42.782;23.108;2023-05-07T10:35:37;-14979.81;;;27.66
62930;BMP280;49036;42.782;23.108;2023-05-07T10:38:04;-14948.25;;;26.74
62930;BMP280;49036;42.782;23.108;2023-05-07T10:40:31;-14967.84;;;27.31
62930;BMP280;49036;42.782;23.108;2023-05-07T10:42:58;-14989.69;;;27.95
62930;BMP280;49036;42.782;23.108;2023-05-07T10:45:28;-15022.25;;;28.90
62930;BMP280;49036;42.782;23.108;2023-05-07T10:48:07;-15068.56;;;30.25
62930;BMP280;49036;42.782;23.108;2023-05-07T10:50:43;-15086.56;;;30.78
62930;BMP280;49036;42.782;23.108;2023-05-07T10:55:50;-15096.47;;;31.06
62930;BMP280;49036;42.782;23.108;2023-05-07T10:58:24;-15069.06;;;30.27
62930;BMP280;49036;42.782;23.108;2023-05-07T11:01:02;-15021.56;;;28.88
62930;BMP280;49036;42.782;23.108;2023-05-07T11:03:28;-15083.09;;;30.68
62930;BMP280;49036;42.782;23.108;2023-05-07T11:06:13;-15101.50;;;31.21
62930;BMP280;49036;42.782;23.108;2023-05-07T11:08:55;-15111.19;;;31.49
62930;BMP280;49036;42.782;23.108;2023-05-07T11:12:00;-15116.38;;;31.65
62930;BMP280;49036;42.782;23.108;2023-05-07T11:14:44;-15130.59;;;32.06
62930;BMP280;49036;42.782;23.108;2023-05-07T11:17:11;-15183.13;;;33.59
62930;BMP280;49036;42.782;23.108;2023-05-07T11:21:36;-15148.47;;;32.58
62930;BMP280;49036;42.782;23.108;2023-05-07T11:24:03;-15207.06;;;34.29
62930;BMP280;49036;42.782;23.108;2023-05-07T11:26:48;-15192.31;;;33.86
62930;BMP280;49036;42.782;23.108;2023-05-07T11:29:21;-15189.38;;;33.77
62930;BMP280;49036;42.782;23.108;2023-05-07T11:31:51;-15180.19;;;33.51
62930;BMP280;49036;42.782;23.108;2023-05-07T11:34:25;-15127.31;;;31.96
62930;BMP280;49036;42.782;23.108;2023-05-07T11:36:51;-15114.13;;;31.58
62930;BMP280;49036;42.782;23.108;2023-05-07T11:39:43;-15149.50;;;32.61
62930;BMP280;49036;42.782;23.108;2023-05-07T11:42:31;-15146.56;;;32.53
62930;BMP280;49036;42.782;23.108;2023-05-07T11:44:57;-15163.38;;;33.02
62930;BMP280;49036;42.782;23.108;2023-05-07T11:48:25;-15141.19;;;32.37
62930;BMP280;49036;42.782;23.108;2023-05-07T11:53:27;-15231.13;;;34.99
62930;BMP280;49036;42.782;23.108;2023-05-07T11:55:53;-15213.47;;;34.48
62930;BMP280;49036;42.782;23.108;2023-05-07T11:58:23;-15221.44;;;34.71
62930;BMP280;49036;42.782;23.108;2023-05-07T12:00:51;-15178.44;;;33.46
62930;BMP280;49036;42.782;23.108;2023-05-07T12:03:17;-15175.16;;;33.36
62930;BMP280;49036;42.782;23.108;2023-05-07T12:05:44;-15133.72;;;32.15
62930;BMP280;49036;42.782;23.108;2023-05-07T12:08:20;-15123.84;;;31.86
62930;BMP280;49036;42.782;23.108;2023-05-07T12:10:48;-15069.06;;;30.27
62930;BMP280;49036;42.782;23.108;2023-05-07T12:13:21;-15168.91;;;33.18
62930;BMP280;49036;42.782;23.108;2023-05-07T12:15:50;-15218.31;;;34.62
62930;BMP280;49036;42.782;23.108;2023-05-07T12:20:19;-15326.78;;;37.78
62930;BMP280;49036;42.782;23.108;2023-05-07T12:22:45;-15369.41;;;39.02
62930;BMP280;49036;42.782;23.108;2023-05-07T12:25:11;-15381.53;;;39.38
62930;BMP280;49036;42.782;23.108;2023-05-07T12:27:40;-15403.38;;;40.01
62930;BMP280;49036;42.782;23.108;2023-05-07T12:30:06;94046.94;;;38.92
62930;BMP280;49036;42.782;23.108;2023-05-07T12:32:35;92987.06;;;39.42
62930;BMP280;49036;42.782;23.108;2023-05-07T12:35:02;94052.56;;;35.57
62930;BMP280;49036;42.782;23.108;2023-05-07T12:37:27;94035.13;;;37.16
62930;BMP280;49036;42.782;23.108;2023-05-07T12:40:19;93136.47;;;34.79
62930;BMP280;49036;42.782;23.108;2023-05-07T12:42:44;93977.94;;;35.84
62930;BMP280;49036;42.782;23.108;2023-05-07T12:45:11;93773.34;;;35.33
62930;BMP280;49036;42.782;23.108;2023-05-07T12:47:37;93926.25;;;36.88
62930;BMP280;49036;42.782;23.108;2023-05-07T12:50:05;93953.28;;;35.87
62930;BMP280;49036;42.782;23.108;2023-05-07T12:52:32;93741.16;;;36.17
62930;BMP280;49036;42.782;23.108;2023-05-07T12:55:04;60848.19;;;39.00
62930;BMP280;49036;42.782;23.108;2023-05-07T12:57:30;-15387.44;;;39.55
62930;BMP280;49036;42.782;23.108;2023-05-07T13:01:53;69753.22;;;40.03
62930;BMP280;49036;42.782;23.108;2023-05-07T13:04:18;72405.72;;;39.07
62930;BMP280;49036;42.782;23.108;2023-05-07T13:06:44;70152.72;;;39.50
62930;BMP280;49036;42.782;23.108;2023-05-07T13:09:09;50462.53;;;40.10
62930;BMP280;49036;42.782;23.108;2023-05-07T13:11:35;-15424.16;;;40.62
62930;BMP280;49036;42.782;23.108;2023-05-07T13:14:00;-15444.78;;;41.22
62930;BMP280;49036;42.782;23.108;2023-05-07T13:50:05;-15377.56;;;39.26
62930;BMP280;49036;42.782;23.108;2023-05-07T13:52:33;-15368.38;;;38.99
62930;BMP280;49036;42.782;23.108;2023-05-07T13:54:58;93990.25;;;37.67
62930;BMP280;49036;42.782;23.108;2023-05-07T13:59:09;94016.09;;;33.18
62930;BMP280;49036;42.782;23.108;2023-05-07T14:01:34;94013.81;;;32.94
62930;BMP280;49036;42.782;23.108;2023-05-07T14:04:00;94015.38;;;32.89
62930;BMP280;49036;42.782;23.108;2023-05-07T14:06:25;94007.97;;;34.61
62930;BMP280;49036;42.782;23.108;2023-05-07T14:08:51;94015.16;;;34.62
62930;BMP280;49036;42.782;23.108;2023-05-07T14:11:17;94010.06;;;35.10
62930;BMP280;49036;42.782;23.108;2023-05-07T14:14:59;93962.09;;;37.97
62930;BMP280;49036;42.782;23.108;2023-05-07T14:17:25;94014.16;;;37.68
62930;BMP280;49036;42.782;23.108;2023-05-07T14:19:53;94005.56;;;36.95
62930;BMP280;49036;42.782;23.108;2023-05-07T14:22:22;94011.81;;;33.77
62930;BMP280;49036;42.782;23.108;2023-05-07T14:24:48;94000.66;;;33.90
62930;BMP280;49036;42.782;23.108;2023-05-07T14:27:13;93994.56;;;36.44
62930;BMP280;49036;42.782;23.108;2023-05-07T14:29:39;93995.63;;;37.61
62930;BMP280;49036;42.782;23.108;2023-05-07T14:32:05;93992.91;;;38.21
62930;BMP280;49036;42.782;23.108;2023-05-07T14:34:31;93996.00;;;38.17
62930;BMP280;49036;42.782;23.108;2023-05-07T14:36:57;93995.47;;;39.34
62930;BMP280;49036;42.782;23.108;2023-05-07T14:39:23;93987.81;;;38.68
62930;BMP280;49036;42.782;23.108;2023-05-07T14:41:49;93983.56;;;39.82
62930;BMP280;49036;42.782;23.108;2023-05-07T14:44:14;93877.47;;;37.78
62930;BMP280;49036;42.782;23.108;2023-05-07T14:46:40;93979.75;;;39.44
62930;BMP280;49036;42.782;23.108;2023-05-07T14:49:05;93986.81;;;41.31